Al-Bouqe, Yemen

3:15 AM AST on August 21, 2014 (GMT +0300)
Nejran | Change Station
CLOSE
Current Station
Airport
Location: Najran,
Elevation: 3976 ft
Nearby Weather Stations

Elev 3976 ft 17.61 °N, 44.42 °E | Updated 15 minutes ago

Scattered Clouds
Scattered Clouds
77 °F
Feels Like 77 °F
N
0
Wind Variable Wind from North

Today
High -- | Low -- °F
--% Chance of Precip.
Yesterday
High -- | Low -- °F
Precip. -- in
5:45 AM 6:23 PM
Waning Crescent, 18% visible
Pressure 29.92 in
Visibility 6.2 miles
Clouds Scattered Clouds 3000 ft
Dew Point 39 °F
Humidity 26%
Rainfall 0.00 in
Snow Depth Not available.
UV 0 out of 12
Pollen Not available.
Air Quality Not available.
Flu Activity Not available.
METAR OENG 210000Z 00000KT 9999 SCT030 25/04 Q1013 NOSIG

More Conditions Fewer Conditions

Pressure 29.92 in
Visibility 6.2 miles
Clouds Scattered Clouds 3000 ft
Dew Point 39 °F
Humidity 26%
Rainfall 0.00 in
Snow Depth Not available.
UV 0 out of 12
Pollen Not available.
Air Quality Not available.
Flu Activity Not available.
METAR OENG 210000Z 00000KT 9999 SCT030 25/04 Q1013 NOSIG

More Conditions Fewer Conditions

10-Day Weather Forecast

Almanac

Astronomy

Aug. 21, 2014 Rise Set
Actual Time 5:45 AM AST 6:23 PM AST
Civil Twilight 5:23 AM AST 6:45 PM AST
Nautical Twilight 4:57 AM AST 7:11 PM AST
Astronomical Twilight 4:30 AM AST 7:38 PM AST
Moon 2:11 AM AST 3:22 PM AST
Length of Visible Light 13h 22m
Length of Day
12h 37m
Tomorrow will be 0m 53s shorter.
Waning Crescent, 18% of the Moon is Illuminated
Aug 20
Waning Crescent
Aug 25
New
Sep 2
First Quarter
Sep 8
Full
Sep 15
Last Quarter

Yesterday's Extremes

Country Highs Country Lows

Community

WunderPhotos

Upload Photos

1,745,807 photos uploaded!

WunderBlogs® & News

Nearby

Snow Depth

Not available.

Earthquake Activity

City Distance Mag. Time & Date
No recent earthquake activity has been reported nearby.
Minimum magnitude displayed is 2.5.

Coastal Water Temperatures

Place Temperature
No Stations Reporting

Nearby Weather Stations